Time;durP1;ratioP1;P1;durP2;ratioP2;P2;SDS_P1;SDS_P2;PMS_P1;PMS_P2;Temp;Humidity;BMP_temperature;BMP_pressure;BME280_temperature;BME280_humidity;BME280_pressure;Samples;Min_cycle;Max_cycle;Signal;HPM_P1;HPM_P2
2022/11/15 00:00:52;;;;;;;6.32;1.95;;;10.60;99.90;;;;;;4861062;29;20046;-61
2022/11/15 00:03:21;;;;;;;6.38;2.05;;;10.60;99.90;;;;;;4861156;29;20085;-61
2022/11/15 00:05:48;;;;;;;6.63;2.00;;;10.60;99.90;;;;;;4845887;29;20121;-61
2022/11/15 00:08:15;;;;;;;4.13;2.30;;;10.50;99.90;;;;;;4860811;29;20527;-61
2022/11/15 00:10:42;;;;;;;4.25;1.85;;;10.50;99.90;;;;;;4862694;29;20378;-61
2022/11/15 00:13:11;;;;;;;6.72;2.20;;;10.50;99.90;;;;;;4862381;29;20049;-61
2022/11/15 00:15:38;;;;;;;6.47;2.05;;;10.50;99.90;;;;;;4860343;29;20078;-62
2022/11/15 00:18:05;;;;;;;10.10;2.80;;;10.40;99.90;;;;;;4861319;29;20117;-61
2022/11/15 00:20:35;;;;;;;6.00;1.88;;;10.40;99.90;;;;;;4861912;29;20420;-61
2022/11/15 00:23:04;;;;;;;6.70;2.53;;;10.40;99.90;;;;;;4860125;29;20042;-61
2022/11/15 00:25:31;;;;;;;6.40;2.40;;;10.30;99.90;;;;;;4860567;29;20102;-61
2022/11/15 00:27:58;;;;;;;3.78;2.08;;;10.30;99.90;;;;;;4861254;29;20053;-61
2022/11/15 00:30:25;;;;;;;8.23;1.90;;;10.20;99.90;;;;;;4845014;29;20058;-62
2022/11/15 00:32:52;;;;;;;9.50;2.83;;;10.20;99.90;;;;;;4860480;29;20045;-62
2022/11/15 00:35:19;;;;;;;6.32;2.22;;;10.20;99.90;;;;;;4860045;29;20427;-60
2022/11/15 00:37:47;;;;;;;384.75;298.75;;;10.10;99.90;;;;;;4861021;29;20053;-70
2022/11/15 00:40:14;;;;;;;24.25;15.82;;;10.20;99.90;;;;;;4861503;29;20049;-63
2022/11/15 00:42:41;;;;;;;13.82;6.97;;;10.20;99.90;;;;;;4860839;29;20423;-62
2022/11/15 00:45:09;;;;;;;12.88;5.10;;;10.10;99.90;;;;;;4859986;29;20049;-62
2022/11/15 00:47:35;;;;;;;7.03;3.55;;;10.10;99.90;;;;;;4859965;29;20049;-62
2022/11/15 00:50:03;;;;;;;7.07;2.47;;;10.10;99.90;;;;;;4860986;29;20081;-62
2022/11/15 00:52:30;;;;;;;7.93;2.88;;;10.10;99.90;;;;;;4860694;29;20045;-62
2022/11/15 00:54:56;;;;;;;9.52;2.13;;;10.00;99.90;;;;;;4860996;29;20041;-62
2022/11/15 00:57:23;;;;;;;10.38;3.03;;;10.00;99.90;;;;;;4859688;29;20084;-62
2022/11/15 00:59:50;;;;;;;11.32;2.33;;;10.10;99.90;;;;;;4861270;29;20053;-62
2022/11/15 01:02:17;;;;;;;9.52;2.63;;;10.10;99.90;;;;;;4860894;29;20057;-62
2022/11/15 01:04:44;;;;;;;7.82;3.25;;;10.10;99.90;;;;;;4860719;29;20582;-62
2022/11/15 01:07:11;;;;;;;8.93;2.17;;;10.10;99.90;;;;;;4844754;29;20050;-62
2022/11/15 01:09:37;;;;;;;8.57;2.97;;;10.10;99.90;;;;;;4861031;29;20049;-62
2022/11/15 01:12:04;;;;;;;7.78;2.75;;;10.10;99.90;;;;;;4860079;29;20112;-62
2022/11/15 01:14:31;;;;;;;9.98;2.30;;;10.10;99.90;;;;;;4861245;29;20098;-62
2022/11/15 01:16:58;;;;;;;15.20;4.00;;;10.10;99.90;;;;;;4864380;29;20050;-62
2022/11/15 01:19:25;;;;;;;10.80;2.78;;;10.10;99.90;;;;;;4862969;29;20099;-62
2022/11/15 01:21:52;;;;;;;6.95;2.10;;;10.10;99.90;;;;;;4865383;29;20057;-62
2022/11/15 01:24:19;;;;;;;7.60;2.17;;;10.10;99.90;;;;;;4864528;29;20049;-62
2022/11/15 01:26:46;;;;;;;8.68;2.35;;;10.10;99.90;;;;;;4863898;29;20359;-62
2022/11/15 01:29:12;;;;;;;5.63;2.33;;;10.10;99.90;;;;;;4864410;29;20125;-62
2022/11/15 01:31:39;;;;;;;9.70;2.13;;;10.20;99.90;;;;;;4864402;29;20470;-62
2022/11/15 01:34:06;;;;;;;9.68;2.00;;;10.20;99.90;;;;;;4864373;29;20470;-62
2022/11/15 01:36:33;;;;;;;14.07;1.98;;;10.20;99.90;;;;;;4865121;29;20049;-62
2022/11/15 01:39:00;;;;;;;7.28;2.03;;;10.20;99.90;;;;;;4865235;29;20105;-62
2022/11/15 01:41:29;;;;;;;9.02;2.47;;;10.20;99.90;;;;;;4864260;29;20554;-62
2022/11/15 01:44:17;;;;;;;9.18;1.90;;;10.20;99.90;;;;;;4863077;29;20049;-62
2022/11/15 01:46:46;;;;;;;8.35;2.75;;;10.20;99.90;;;;;;4864705;29;20054;-62
2022/11/15 01:49:15;;;;;;;5.80;2.08;;;10.20;99.90;;;;;;4847848;29;20081;-62
2022/11/15 01:51:42;;;;;;;8.52;1.92;;;10.20;99.90;;;;;;4864087;29;20556;-62
2022/11/15 01:54:10;;;;;;;9.60;2.65;;;10.20;99.90;;;;;;4848553;29;20450;-62
2022/11/15 01:56:42;;;;;;;5.07;2.00;;;10.20;99.90;;;;;;4864164;29;20114;-62
2022/11/15 01:59:09;;;;;;;9.43;2.40;;;10.20;99.90;;;;;;4863599;29;20101;-62
2022/11/15 02:01:35;;;;;;;9.38;2.70;;;10.20;99.90;;;;;;4862671;29;20046;-62
2022/11/15 02:04:09;;;;;;;10.13;2.40;;;10.20;99.90;;;;;;4863846;29;20049;-62
2022/11/15 02:06:36;;;;;;;6.75;2.65;;;10.30;99.90;;;;;;4849042;29;20053;-62
2022/11/15 02:09:03;;;;;;;8.27;2.10;;;10.30;99.90;;;;;;4863548;29;20133;-62
2022/11/15 02:11:30;;;;;;;7.40;2.10;;;10.30;99.90;;;;;;4863350;29;20049;-62
2022/11/15 02:13:57;;;;;;;8.30;2.10;;;10.30;99.90;;;;;;4863493;29;20109;-62
2022/11/15 02:16:54;;;;;;;9.13;2.00;;;10.20;99.90;;;;;;4864600;29;20191;-62
2022/11/15 02:19:46;;;;;;;9.77;2.53;;;10.20;99.90;;;;;;4863458;29;20131;-62
2022/11/15 02:22:42;;;;;;;10.98;2.85;;;10.20;99.90;;;;;;4864446;29;20049;-62
2022/11/15 02:25:31;;;;;;;10.48;3.60;;;10.20;99.90;;;;;;4863128;29;20517;-62
2022/11/15 02:28:27;;;;;;;10.10;2.77;;;10.30;99.90;;;;;;4862607;29;20078;-62
2022/11/15 02:30:55;;;;;;;8.32;2.78;;;10.30;99.90;;;;;;4848764;29;20431;-62
2022/11/15 02:33:34;;;;;;;16.10;3.63;;;10.30;99.90;;;;;;4862399;29;20132;-62
2022/11/15 02:36:05;;;;;;;8.38;2.47;;;10.30;99.90;;;;;;4863614;29;20085;-62
2022/11/15 02:38:41;;;;;;;5.45;2.00;;;10.30;99.90;;;;;;4862222;29;20471;-62
2022/11/15 02:41:15;;;;;;;9.23;3.50;;;10.30;99.90;;;;;;4848676;29;20101;-62
2022/11/15 02:43:58;;;;;;;10.13;3.00;;;10.30;99.90;;;;;;4847609;29;20049;-62
2022/11/15 02:49:18;;;;;;;11.15;2.38;;;10.30;99.90;;;;;;4850147;29;20470;-62
2022/11/15 02:51:46;;;;;;;7.80;2.53;;;10.30;99.90;;;;;;4863350;29;20050;-62
2022/11/15 02:54:15;;;;;;;4.90;1.90;;;10.20;99.90;;;;;;4863687;29;20098;-62
2022/11/15 02:56:43;;;;;;;8.60;1.90;;;10.20;99.90;;;;;;4831312;29;20099;-62
2022/11/15 02:59:57;;;;;;;9.25;2.35;;;10.20;99.90;;;;;;4846427;29;20045;-62
2022/11/15 03:03:07;;;;;;;6.53;1.60;;;10.20;99.90;;;;;;4852656;29;20084;-62
2022/11/15 03:05:39;;;;;;;;;;;10.10;99.90;;;;;;4862814;29;20445;-62
2022/11/15 03:08:27;;;;;;;7.28;2.40;;;10.10;99.90;;;;;;4862414;29;19920;-62
2022/11/15 03:11:05;;;;;;;7.60;1.88;;;10.10;99.90;;;;;;4863030;29;20110;-62
2022/11/15 03:13:47;;;;;;;8.73;1.80;;;10.20;99.90;;;;;;4862193;29;20437;-61
2022/11/15 03:16:39;;;;;;;8.82;2.38;;;10.30;99.90;;;;;;4862803;29;20046;-62
2022/11/15 03:19:16;;;;;;;8.07;2.70;;;10.30;99.90;;;;;;4861150;29;20041;-62
2022/11/15 03:21:43;;;;;;;7.68;1.88;;;10.30;99.90;;;;;;4862191;29;20085;-63
2022/11/15 03:24:10;;;;;;;11.48;3.42;;;10.30;99.90;;;;;;4846334;29;20046;-63
2022/11/15 03:26:37;;;;;;;8.70;2.80;;;10.30;99.90;;;;;;4861207;29;20053;-63
2022/11/15 03:29:20;;;;;;;10.40;2.83;;;10.40;99.90;;;;;;4861229;29;20494;-64
2022/11/15 03:31:53;;;;;;;6.22;1.73;;;10.40;99.90;;;;;;4863156;29;20079;-62
2022/11/15 03:34:20;;;;;;;11.55;2.88;;;10.40;99.90;;;;;;4861473;29;20493;-61
2022/11/15 03:36:47;;;;;;;6.03;2.00;;;10.40;99.90;;;;;;4862192;29;20049;-61
2022/11/15 03:39:14;;;;;;;11.38;3.03;;;10.50;99.90;;;;;;4845830;29;20474;-63
2022/11/15 03:41:55;;;;;;;7.28;2.60;;;10.50;99.90;;;;;;4862151;29;20050;-61
2022/11/15 03:44:42;;;;;;;11.15;2.72;;;10.50;99.90;;;;;;4863242;29;20049;-63
2022/11/15 03:47:21;;;;;;;9.05;2.40;;;10.50;99.90;;;;;;4861170;29;20045;-63
2022/11/15 03:49:55;;;;;;;8.35;2.10;;;10.50;99.90;;;;;;4862073;29;20415;-61
2022/11/15 03:52:22;;;;;;;8.15;1.75;;;10.60;99.90;;;;;;4846668;29;20109;-63
2022/11/15 03:54:54;;;;;;;7.93;2.08;;;10.50;99.90;;;;;;4862138;29;20045;-63
2022/11/15 03:57:21;;;;;;;10.45;2.65;;;10.50;99.90;;;;;;4864183;29;20109;-63
2022/11/15 03:59:48;;;;;;;8.00;2.35;;;10.50;99.90;;;;;;4862580;29;20093;-63
2022/11/15 04:02:15;;;;;;;6.18;2.10;;;10.50;99.90;;;;;;4862490;29;20041;-63
2022/11/15 04:04:42;;;;;;;18.33;2.80;;;10.50;99.90;;;;;;4861730;29;20049;-63
2022/11/15 04:07:08;;;;;;;15.90;2.92;;;10.50;99.90;;;;;;4862179;29;20049;-63
2022/11/15 04:10:01;;;;;;;10.93;2.22;;;10.50;99.90;;;;;;4862730;29;20053;-63
2022/11/15 04:12:31;;;;;;;13.23;2.15;;;10.50;99.90;;;;;;4861674;29;20537;-63
2022/11/15 04:15:07;;;;;;;11.48;2.85;;;10.60;99.90;;;;;;4861839;29;20101;-63
2022/11/15 04:17:35;;;;;;;10.18;2.30;;;10.60;99.90;;;;;;4861515;29;20102;-63
2022/11/15 04:25:44;;;;;;;15.27;3.25;;;10.60;99.90;;;;;;4861358;29;20041;-63
2022/11/15 04:28:11;;;;;;;14.82;3.15;;;10.60;99.90;;;;;;4861531;29;20045;-63
2022/11/15 04:30:38;;;;;;;10.23;2.45;;;10.70;99.90;;;;;;4860174;29;20053;-63
2022/11/15 04:33:05;;;;;;;10.48;2.70;;;10.70;99.90;;;;;;4862317;29;20419;-63
2022/11/15 04:35:32;;;;;;;9.05;3.17;;;10.80;99.90;;;;;;4861425;29;20057;-63
2022/11/15 04:37:59;;;;;;;8.45;2.08;;;10.80;99.90;;;;;;4860925;29;20049;-63
2022/11/15 04:40:26;;;;;;;10.95;2.22;;;10.90;99.90;;;;;;4860879;29;20045;-63
2022/11/15 04:42:53;;;;;;;17.42;4.05;;;11.00;99.90;;;;;;4861614;29;20096;-63
2022/11/15 04:45:23;;;;;;;14.13;2.47;;;11.10;99.90;;;;;;4861291;29;20107;-63
2022/11/15 04:47:50;;;;;;;11.35;3.15;;;11.10;99.90;;;;;;4861215;29;20045;-63
2022/11/15 04:50:17;;;;;;;13.55;3.25;;;11.10;99.90;;;;;;4861477;29;20113;-63
2022/11/15 04:52:50;;;;;;;9.85;2.65;;;11.20;99.90;;;;;;4861933;29;20046;-63
2022/11/15 04:55:17;;;;;;;10.48;2.38;;;11.20;99.90;;;;;;4861720;29;20073;-63
2022/11/15 04:57:44;;;;;;;15.05;3.08;;;11.20;99.90;;;;;;4859939;29;20045;-63
2022/11/15 05:00:13;;;;;;;8.68;3.03;;;11.20;99.90;;;;;;4859773;29;20042;-63
2022/11/15 05:05:25;;;;;;;11.55;3.92;;;11.30;99.90;;;;;;4861969;29;20113;-63
2022/11/15 05:07:52;;;;;;;19.10;3.17;;;11.30;99.90;;;;;;4844521;29;20049;-63
2022/11/15 05:10:19;;;;;;;13.43;3.05;;;11.40;99.90;;;;;;4861897;29;20053;-63
2022/11/15 05:12:47;;;;;;;13.10;3.83;;;11.50;99.90;;;;;;4860773;29;20486;-63
2022/11/15 05:15:13;;;;;;;9.70;3.00;;;11.50;99.90;;;;;;4844899;29;20095;-63
2022/11/15 05:17:41;;;;;;;11.65;3.17;;;11.60;99.90;;;;;;4861425;29;20089;-63
2022/11/15 05:20:08;;;;;;;17.40;3.80;;;11.60;99.90;;;;;;4844543;29;20045;-64
2022/11/15 05:22:35;;;;;;;11.25;2.63;;;11.70;99.90;;;;;;4859744;29;20074;-61
2022/11/15 05:25:02;;;;;;;19.08;4.13;;;11.70;99.90;;;;;;4860742;29;20098;-61
2022/11/15 05:27:29;;;;;;;12.18;3.05;;;11.80;99.90;;;;;;4861015;29;20050;-61
2022/11/15 05:29:56;;;;;;;14.50;3.35;;;11.80;99.90;;;;;;4860974;29;20374;-63
2022/11/15 05:32:22;;;;;;;80.45;68.40;;;11.90;99.90;;;;;;4860952;29;20092;-69
2022/11/15 05:34:49;;;;;;;9.85;4.38;;;11.90;99.90;;;;;;4859666;29;20098;-61
2022/11/15 05:37:16;;;;;;;9.57;3.25;;;12.00;99.90;;;;;;4860398;29;20482;-61
2022/11/15 05:39:43;;;;;;;16.15;2.75;;;12.00;99.90;;;;;;4860990;29;20042;-61
2022/11/15 05:42:14;;;;;;;13.15;4.22;;;12.00;99.90;;;;;;4861606;29;20049;-61
2022/11/15 05:44:46;;;;;;;13.38;3.35;;;12.00;99.90;;;;;;4859391;29;20050;-61
2022/11/15 05:47:19;;;;;;;15.00;3.13;;;12.00;99.90;;;;;;4860364;29;20045;-61
2022/11/15 05:49:46;;;;;;;13.88;3.97;;;12.00;99.90;;;;;;4859397;29;20106;-61
2022/11/15 05:52:14;;;;;;;20.52;4.88;;;12.00;99.90;;;;;;4860516;29;20052;-62
2022/11/15 05:54:40;;;;;;;11.25;2.60;;;12.10;99.90;;;;;;4844412;29;20415;-62
2022/11/15 05:57:07;;;;;;;13.40;3.35;;;12.10;99.90;;;;;;4859428;29;20102;-62
2022/11/15 05:59:34;;;;;;;8.88;2.67;;;12.10;99.90;;;;;;4860558;29;20093;-62
2022/11/15 06:02:01;;;;;;;16.40;2.88;;;12.10;99.90;;;;;;4845561;29;20082;-62
2022/11/15 06:04:28;;;;;;;14.02;3.15;;;12.10;99.90;;;;;;4863491;29;20052;-62
2022/11/15 06:06:55;;;;;;;12.95;3.10;;;12.10;99.90;;;;;;4864827;29;20057;-62
2022/11/15 06:09:22;;;;;;;10.55;3.13;;;12.10;99.90;;;;;;4863638;29;20054;-62
2022/11/15 06:11:49;;;;;;;9.40;2.97;;;12.10;99.90;;;;;;4864002;29;20099;-62
2022/11/15 06:14:16;;;;;;;12.38;3.17;;;12.10;99.90;;;;;;4864988;29;20084;-62
2022/11/15 06:16:43;;;;;;;20.42;3.53;;;12.10;99.90;;;;;;4863511;29;20049;-62
2022/11/15 06:19:10;;;;;;;15.15;3.60;;;12.10;99.90;;;;;;4847788;29;20117;-62
2022/11/15 06:21:37;;;;;;;14.40;5.13;;;12.10;99.90;;;;;;4864013;29;20133;-62
2022/11/15 06:24:04;;;;;;;14.68;3.22;;;12.10;99.90;;;;;;4863596;29;20049;-62
2022/11/15 06:26:31;;;;;;;10.48;3.30;;;12.20;99.90;;;;;;4847750;29;20049;-62
2022/11/15 06:28:58;;;;;;;16.90;3.72;;;12.20;99.90;;;;;;4863464;29;20049;-62
2022/11/15 06:31:25;;;;;;;12.98;2.92;;;12.20;99.90;;;;;;4863379;29;20473;-62
2022/11/15 06:33:52;;;;;;;11.02;3.17;;;12.20;99.90;;;;;;4847505;29;20053;-62
2022/11/15 06:36:18;;;;;;;14.05;3.97;;;12.20;99.90;;;;;;4863815;29;20046;-62
2022/11/15 06:38:45;;;;;;;9.95;3.33;;;12.20;99.90;;;;;;4863290;29;20102;-62
2022/11/15 06:41:13;;;;;;;11.02;3.03;;;12.20;99.90;;;;;;4862069;29;20105;-62
2022/11/15 06:43:40;;;;;;;10.95;2.67;;;12.20;99.90;;;;;;4847197;29;20470;-62
2022/11/15 06:46:07;;;;;;;15.52;4.07;;;12.20;99.90;;;;;;4862976;29;20054;-62
2022/11/15 06:48:34;;;;;;;10.52;3.42;;;12.20;99.90;;;;;;4863312;29;20049;-62
2022/11/15 06:51:01;;;;;;;20.38;3.58;;;12.10;99.90;;;;;;4861691;29;20089;-62
2022/11/15 06:53:29;;;;;;;15.30;3.38;;;12.10;99.90;;;;;;4863217;29;20109;-62
2022/11/15 06:56:04;;;;;;;18.38;4.63;;;12.10;99.90;;;;;;4847473;29;20103;-62
2022/11/15 06:58:31;;;;;;;11.60;3.42;;;12.10;99.90;;;;;;4862772;29;20050;-62
2022/11/15 07:01:02;;;;;;;9.88;3.15;;;12.10;99.90;;;;;;4862847;29;20547;-62
2022/11/15 07:03:29;;;;;;;16.15;4.13;;;12.00;99.90;;;;;;4862684;29;20045;-62
2022/11/15 07:05:57;;;;;;;17.75;4.03;;;12.00;99.90;;;;;;4861537;29;20068;-62
2022/11/15 07:08:31;;;;;;;14.13;4.55;;;12.00;99.90;;;;;;4863372;29;20375;-62
2022/11/15 07:10:59;;;;;;;13.80;2.67;;;12.00;99.90;;;;;;4862532;29;20053;-62
2022/11/15 07:13:27;;;;;;;9.90;2.45;;;11.90;99.90;;;;;;4862157;29;20045;-62
2022/11/15 07:15:53;;;;;;;14.18;4.30;;;11.90;99.90;;;;;;4862870;29;20177;-62
2022/11/15 07:18:20;;;;;;;9.70;2.75;;;11.90;99.90;;;;;;4863753;29;20109;-61
2022/11/15 07:20:47;;;;;;;11.43;3.38;;;11.90;99.90;;;;;;4861065;29;20109;-62
2022/11/15 07:23:14;;;;;;;79.00;60.90;;;11.90;99.90;;;;;;4862432;29;20050;-62
2022/11/15 07:25:41;;;;;;;17.85;5.95;;;11.90;99.90;;;;;;4861930;29;20049;-63
2022/11/15 07:28:08;;;;;;;8.18;3.65;;;11.90;99.90;;;;;;4862273;29;20061;-60
2022/11/15 07:30:35;;;;;;;11.13;4.15;;;11.90;99.90;;;;;;4862715;29;20492;-65
2022/11/15 07:33:08;;;;;;;11.55;3.28;;;11.90;99.90;;;;;;4861615;29;20385;-64
2022/11/15 07:35:34;;;;;;;11.75;3.15;;;11.90;99.90;;;;;;4861331;29;20046;-65
2022/11/15 07:38:02;;;;;;;11.18;2.95;;;11.80;99.90;;;;;;4862506;29;20057;-64
2022/11/15 07:40:30;;;;;;;234.75;179.30;;;11.80;99.90;;;;;;4860837;29;20093;-63
2022/11/15 07:43:06;;;;;;;26.42;14.35;;;11.70;99.90;;;;;;4863072;29;20053;-63
2022/11/15 07:45:34;;;;;;;9.88;4.43;;;11.70;99.90;;;;;;4846967;29;20049;-63
2022/11/15 07:48:00;;;;;;;7.95;3.38;;;11.60;99.90;;;;;;4845870;29;20053;-64
2022/11/15 07:50:31;;;;;;;8.05;2.95;;;11.60;99.90;;;;;;4863068;29;20085;-64
2022/11/15 07:52:58;;;;;;;13.05;3.35;;;11.50;99.90;;;;;;4863167;29;20045;-64
2022/11/15 07:55:27;;;;;;;9.90;2.80;;;11.50;99.90;;;;;;4845950;29;20098;-62
2022/11/15 07:58:02;;;;;;;7.57;2.22;;;11.40;99.90;;;;;;4860573;29;20477;-64
2022/11/15 08:00:29;;;;;;;14.13;2.22;;;11.40;99.90;;;;;;4862370;29;20458;-64
2022/11/15 08:03:07;;;;;;;8.55;2.72;;;11.40;99.90;;;;;;4861540;29;20478;-65
2022/11/15 08:05:34;;;;;;;6.95;2.88;;;11.40;99.90;;;;;;4845271;29;20469;-64
2022/11/15 08:08:01;;;;;;;6.00;2.15;;;11.40;99.90;;;;;;4845461;29;20045;-64
2022/11/15 08:10:28;;;;;;;9.63;2.38;;;11.40;99.90;;;;;;4860578;29;20422;-64
2022/11/15 08:13:13;;;;;;;8.90;2.35;;;11.40;99.90;;;;;;4860264;29;20482;-64
2022/11/15 08:15:40;;;;;;;12.38;2.50;;;11.30;99.90;;;;;;4861329;29;20132;-64
2022/11/15 08:18:11;;;;;;;8.00;2.20;;;11.30;99.90;;;;;;4860576;29;20065;-64
2022/11/15 08:20:38;;;;;;;7.70;2.40;;;11.30;99.90;;;;;;4860948;29;20466;-64
2022/11/15 08:23:05;;;;;;;8.93;2.05;;;11.30;99.90;;;;;;4860426;29;20045;-63
2022/11/15 08:25:33;;;;;;;79.72;52.78;;;11.30;99.90;;;;;;4861405;29;20117;-64
2022/11/15 08:28:02;;;;;;;13.93;7.05;;;11.40;99.90;;;;;;4845095;29;20128;-63
2022/11/15 08:30:29;;;;;;;7.40;3.30;;;11.40;99.90;;;;;;4860016;29;20092;-66
2022/11/15 08:32:58;;;;;;;7.72;3.70;;;11.40;99.90;;;;;;4845040;29;20482;-66
2022/11/15 08:35:25;;;;;;;8.43;3.00;;;11.40;99.90;;;;;;4861023;29;20513;-64
2022/11/15 08:37:55;;;;;;;5.07;1.85;;;11.40;99.90;;;;;;4861355;29;20397;-63
2022/11/15 08:40:22;;;;;;;8.07;3.05;;;11.40;99.90;;;;;;4860407;29;20060;-66
2022/11/15 08:42:49;;;;;;;12.60;7.55;;;11.40;99.90;;;;;;4861616;29;20449;-62
2022/11/15 08:45:16;;;;;;;6.43;2.22;;;11.40;99.90;;;;;;4860912;29;20050;-61
2022/11/15 08:47:43;;;;;;;5.50;2.20;;;11.50;99.90;;;;;;4845314;29;20124;-61
2022/11/15 08:50:16;;;;;;;5.85;2.05;;;11.50;99.90;;;;;;4859813;29;20383;-62
2022/11/15 08:52:43;;;;;;;5.03;1.52;;;11.50;99.90;;;;;;4860367;29;20045;-63
2022/11/15 08:55:10;;;;;;;3.20;1.42;;;11.50;99.90;;;;;;4861946;29;20431;-62
2022/11/15 08:57:37;;;;;;;4.22;1.55;;;11.50;99.90;;;;;;4859989;29;20427;-62
2022/11/15 09:00:04;;;;;;;3.53;1.55;;;11.50;99.90;;;;;;4861793;29;20053;-62
2022/11/15 09:02:31;;;;;;;4.63;2.22;;;11.60;99.90;;;;;;4860597;29;20049;-61
2022/11/15 09:04:58;;;;;;;2.88;1.50;;;11.60;99.90;;;;;;4859956;29;20049;-61
2022/11/15 09:07:25;;;;;;;6.72;2.78;;;11.70;99.90;;;;;;4861091;29;20105;-62
2022/11/15 09:09:52;;;;;;;27.40;21.35;;;11.70;99.90;;;;;;4861452;29;20042;-61
2022/11/15 09:12:18;;;;;;;26.83;23.08;;;11.70;99.90;;;;;;4859496;29;20078;-61
2022/11/15 09:14:45;;;;;;;4.47;3.25;;;11.70;99.90;;;;;;4860395;29;20053;-63
2022/11/15 09:17:12;;;;;;;5.63;2.75;;;11.70;99.90;;;;;;4859815;29;20057;-67
2022/11/15 09:19:39;;;;;;;7.93;6.07;;;11.70;99.90;;;;;;4860068;29;20042;-71
2022/11/15 09:22:07;;;;;;;2.20;1.50;;;11.80;99.90;;;;;;4860159;29;20114;-62
2022/11/15 09:24:34;;;;;;;7.78;2.05;;;11.80;99.90;;;;;;4859840;29;20049;-62
2022/11/15 09:27:01;;;;;;;1.90;1.13;;;11.80;99.90;;;;;;4860236;29;20486;-67
2022/11/15 09:29:28;;;;;;;3.55;1.30;;;11.80;99.90;;;;;;4859801;29;20390;-69
2022/11/15 09:31:55;;;;;;;2.25;1.30;;;11.80;99.90;;;;;;4860976;29;20057;-69
2022/11/15 09:34:22;;;;;;;6.68;2.78;;;11.80;99.90;;;;;;4860644;29;20074;-68
2022/11/15 09:36:48;;;;;;;3.33;1.55;;;11.80;99.90;;;;;;4862823;29;20521;-68
2022/11/15 09:39:15;;;;;;;2.22;0.90;;;11.80;99.90;;;;;;4864508;29;20078;-69
2022/11/15 09:42:17;;;;;;;2.88;1.33;;;11.80;99.90;;;;;;4863403;29;20069;-69
2022/11/15 09:45:00;;;;;;;3.53;1.30;;;11.90;99.90;;;;;;4864134;29;20049;-69
2022/11/15 09:47:49;;;;;;;2.55;1.13;;;11.90;99.90;;;;;;4848546;29;20057;-68
2022/11/15 09:50:21;;;;;;;3.03;1.30;;;11.90;99.90;;;;;;4863705;29;20444;-68
2022/11/15 09:52:48;;;;;;;2.63;1.50;;;11.90;99.90;;;;;;4833745;29;20218;-70
2022/11/15 09:55:21;;;;;;;2.50;1.23;;;11.90;99.90;;;;;;4862694;29;20050;-70
2022/11/15 09:57:51;;;;;;;4.07;1.20;;;11.90;99.90;;;;;;4864624;29;20045;-69
2022/11/15 10:00:19;;;;;;;2.05;1.27;;;11.90;99.90;;;;;;4863482;29;20041;-69
2022/11/15 10:03:12;;;;;;;5.75;1.85;;;11.90;99.90;;;;;;4862694;29;20110;-69
2022/11/15 10:05:45;;;;;;;3.67;1.98;;;12.00;99.90;;;;;;4864304;29;20045;-69
2022/11/15 10:08:31;;;;;;;6.55;1.67;;;12.00;99.90;;;;;;4848996;29;20053;-69
2022/11/15 10:11:14;;;;;;;3.83;2.00;;;12.00;99.90;;;;;;4863852;29;20060;-69
2022/11/15 10:14:02;;;;;;;5.13;1.50;;;12.00;99.90;;;;;;4851659;29;20051;-69
2022/11/15 10:16:44;;;;;;;3.40;1.80;;;12.10;99.90;;;;;;4862256;29;20477;-68
2022/11/15 10:19:39;;;;;;;1.88;1.15;;;12.10;99.90;;;;;;4863728;29;20442;-69
2022/11/15 10:22:11;;;;;;;5.30;1.67;;;12.10;99.90;;;;;;4863361;29;20105;-69
2022/11/15 10:24:42;;;;;;;2.53;1.45;;;12.10;99.90;;;;;;4864129;29;20137;-68
2022/11/15 10:27:16;;;;;;;3.60;1.38;;;12.10;99.90;;;;;;4863099;29;20081;-68
2022/11/15 10:29:48;;;;;;;2.92;1.50;;;12.10;99.90;;;;;;4863303;29;20053;-68
2022/11/15 10:32:18;;;;;;;3.17;1.70;;;12.10;99.90;;;;;;4862376;29;20094;-68
2022/11/15 10:34:45;;;;;;;4.57;1.73;;;12.10;99.90;;;;;;4862890;29;20041;-68
2022/11/15 10:37:12;;;;;;;3.97;1.60;;;12.10;99.90;;;;;;4862176;29;20093;-69
2022/11/15 10:39:39;;;;;;;6.00;1.38;;;12.20;99.90;;;;;;4863073;29;20573;-68
2022/11/15 10:42:25;;;;;;;3.15;1.60;;;12.20;99.90;;;;;;4847040;29;20153;-68
2022/11/15 10:44:52;;;;;;;5.05;2.20;;;12.20;99.90;;;;;;4862704;29;20045;-69
2022/11/15 10:47:30;;;;;;;5.40;1.70;;;12.20;99.90;;;;;;4846258;29;20054;-69
2022/11/15 10:50:29;;;;;;;4.90;1.83;;;12.20;99.90;;;;;;4847930;29;20046;-69
2022/11/15 10:52:55;;;;;;;5.63;1.92;;;12.20;99.90;;;;;;4863291;29;20049;-68
2022/11/15 10:55:25;;;;;;;4.38;1.35;;;12.20;99.90;;;;;;4862884;29;20072;-68
2022/11/15 10:58:18;;;;;;;6.22;1.55;;;12.20;99.90;;;;;;4862875;29;20050;-68
2022/11/15 11:00:45;;;;;;;5.13;1.50;;;12.20;99.90;;;;;;4849477;29;20474;-68
2022/11/15 11:03:45;;;;;;;5.03;1.75;;;12.30;99.90;;;;;;4846245;29;20041;-68
2022/11/15 11:06:16;;;;;;;4.07;1.35;;;12.30;99.90;;;;;;4813072;29;20434;-68
2022/11/15 11:08:58;;;;;;;3.58;1.45;;;12.30;99.90;;;;;;4862967;29;20057;-68
2022/11/15 11:11:43;;;;;;;3.70;1.30;;;12.30;99.90;;;;;;4862934;29;20388;-68
2022/11/15 11:14:22;;;;;;;7.97;2.40;;;12.30;99.90;;;;;;4862581;29;20447;-68
2022/11/15 11:17:08;;;;;;;4.20;1.40;;;12.30;99.90;;;;;;4847468;29;20467;-68
2022/11/15 11:19:54;;;;;;;3.67;1.75;;;12.30;99.90;;;;;;4862815;29;20048;-68
2022/11/15 11:22:29;;;;;;;3.83;1.40;;;12.30;99.90;;;;;;4863417;29;20050;-68
2022/11/15 11:25:10;;;;;;;2.60;1.30;;;12.30;99.90;;;;;;4862644;29;20110;-68
2022/11/15 11:28:06;;;;;;;6.20;1.40;;;12.30;99.90;;;;;;4833295;29;20049;-69
2022/11/15 11:31:09;;;;;;;5.05;1.10;;;12.30;99.90;;;;;;4855225;29;20054;-69
2022/11/15 11:34:01;;;;;;;1.98;1.33;;;12.40;99.90;;;;;;4862561;29;20050;-68
2022/11/15 11:36:34;;;;;;;4.55;1.35;;;12.30;99.90;;;;;;4831212;29;20101;-68
2022/11/15 11:39:25;;;;;;;2.83;1.20;;;12.30;99.90;;;;;;4862864;29;20488;-68
2022/11/15 11:42:04;;;;;;;5.72;1.20;;;12.40;99.90;;;;;;4862252;29;20070;-68
2022/11/15 11:44:58;;;;;;;1.70;0.80;;;12.30;99.90;;;;;;4861673;29;20061;-68
2022/11/15 11:47:30;;;;;;;3.78;1.40;;;12.30;99.90;;;;;;4860304;29;20045;-68
2022/11/15 11:50:00;;;;;;;1.92;1.30;;;12.40;99.90;;;;;;4862796;29;20423;-68
2022/11/15 11:52:33;;;;;;;4.57;1.17;;;12.30;99.90;;;;;;4830732;29;20052;-68
2022/11/15 11:55:26;;;;;;;2.60;1.25;;;12.40;99.90;;;;;;4846160;29;20102;-67
2022/11/15 11:58:17;;;;;;;4.40;1.45;;;12.40;99.90;;;;;;4856135;29;20441;-68
2022/11/15 12:00:51;;;;;;;3.92;1.10;;;12.40;99.90;;;;;;4861695;29;20513;-68
2022/11/15 12:03:41;;;;;;;1.75;1.10;;;12.40;99.90;;;;;;4846587;29;20106;-67
2022/11/15 12:06:28;;;;;;;4.57;1.17;;;12.40;99.90;;;;;;4847319;29;20049;-72
2022/11/15 12:09:07;;;;;;;4.30;1.40;;;12.40;99.90;;;;;;4860681;29;20584;-69
2022/11/15 12:11:58;;;;;;;4.95;2.15;;;12.40;99.90;;;;;;4860845;29;20053;-69
2022/11/15 12:14:44;;;;;;;77.60;58.25;;;12.40;99.90;;;;;;4862514;29;20101;-65
2022/11/15 12:17:11;;;;;;;8.52;6.53;;;12.40;99.90;;;;;;4861463;29;20476;-62
2022/11/15 12:19:39;;;;;;;8.95;3.00;;;12.40;99.90;;;;;;4845332;29;20049;-59
2022/11/15 12:22:27;;;;;;;7.90;2.83;;;12.40;99.90;;;;;;4861441;29;20064;-61
2022/11/15 12:25:45;;;;;;;4.63;1.85;;;12.50;99.90;;;;;;4861581;29;20470;-66
2022/11/15 12:28:29;;;;;;;6.78;1.65;;;12.50;99.90;;;;;;4823605;29;20398;-63
2022/11/15 12:31:13;;;;;;;4.10;1.75;;;12.50;99.90;;;;;;4860504;29;20389;-62
2022/11/15 12:33:41;;;;;;;4.32;1.52;;;12.50;99.90;;;;;;4845983;29;20053;-63
2022/11/15 12:36:10;;;;;;;7.10;2.72;;;12.60;99.90;;;;;;4860978;29;20045;-62
2022/11/15 12:38:59;;;;;;;8.20;2.17;;;12.50;99.90;;;;;;4845586;29;20053;-62
2022/11/15 12:41:28;;;;;;;6.03;1.95;;;12.50;99.90;;;;;;4862090;29;20427;-64
2022/11/15 12:43:55;;;;;;;6.28;2.40;;;12.50;99.90;;;;;;4860011;29;20493;-62
2022/11/15 12:46:29;;;;;;;5.68;1.95;;;12.50;99.90;;;;;;4845721;29;20045;-62
2022/11/15 12:49:31;;;;;;;7.20;2.97;;;12.60;99.90;;;;;;4860078;29;20172;-67
2022/11/15 12:51:58;;;;;;;4.55;2.25;;;12.60;99.90;;;;;;4861262;29;20049;-64
2022/11/15 12:54:26;;;;;;;9.65;5.28;;;12.60;99.90;;;;;;4861752;29;20049;-64
2022/11/15 12:57:08;;;;;;;16.88;6.22;;;12.60;99.90;;;;;;4861780;29;20050;-64
2022/11/15 13:00:04;;;;;;;8.43;3.38;;;12.70;99.90;;;;;;4860918;29;20478;-63
2022/11/15 13:02:48;;;;;;;10.88;4.95;;;12.70;99.90;;;;;;4860825;29;20041;-64
2022/11/15 13:05:22;;;;;;;9.77;4.10;;;12.70;99.90;;;;;;4859744;29;20108;-64
2022/11/15 13:07:49;;;;;;;7.18;3.67;;;12.70;99.90;;;;;;4860812;29;20049;-68
2022/11/15 13:10:15;;;;;;;6.90;3.15;;;12.70;99.90;;;;;;4862459;29;20076;-65
2022/11/15 13:12:42;;;;;;;9.07;2.67;;;12.70;99.90;;;;;;4867034;29;20056;-68
2022/11/15 13:15:12;;;;;;;8.73;3.35;;;12.70;99.90;;;;;;4868064;29;20054;-62
2022/11/15 13:17:48;;;;;;;11.98;3.20;;;12.70;99.90;;;;;;4866990;29;20045;-63
2022/11/15 13:20:27;;;;;;;7.60;2.25;;;12.80;99.90;;;;;;4866862;29;20088;-63